Andrews, SC

7:45 PM EDT on September 02, 2014 (GMT -0400)
Spring Gully | Change Station
CLOSE
Current Station
Personal Weather Station
Location: Georgetown, SC
Elevation: 20 ft
Nearby Weather Stations

Elev 20 ft 33.38 °N, 79.42 °W | Updated 57 seconds ago

Clear
Clear
81.5 °F
Feels Like 90 °F
N
0.0
Wind Variable Wind from NE
Gusts 0.0 mph

Today
High -- | Low -- °F
--% Chance of Precip.
Yesterday
High -- | Low -- °F
Precip. -- in
6:52 AM 7:42 PM
First Quarter, 56% visible
Pressure 30.02 in
Visibility 10.0 miles
Clouds Clear
Heat Index 90 °F
Dew Point 78 °F
Humidity 90%
Rainfall 0.00 in
Snow Depth Not available.
UV 0 out of 12
Pollen 9.00 out of 12
Air Quality Not available.
Flu Activity Not available.
METAR KGGE 022335Z AUTO 20003KT 10SM CLR 27/25 A3002 RMK AO2 LTG DSNT SW

More Conditions Fewer Conditions

Pressure 30.02 in
Visibility 10.0 miles
Clouds Clear
Heat Index 90 °F
Dew Point 78 °F
Humidity 90%
Rainfall 0.00 in
Snow Depth Not available.
UV 0 out of 12
Pollen 9.00 out of 12
Air Quality Not available.
Flu Activity Not available.
METAR KGGE 022335Z AUTO 20003KT 10SM CLR 27/25 A3002 RMK AO2 LTG DSNT SW

More Conditions Fewer Conditions

10-Day Weather Forecast

Almanac

Astronomy

Sep. 02, 2014 Rise Set
Actual Time 6:52 AM EDT 7:42 PM EDT
Civil Twilight 6:27 AM EDT 8:07 PM EDT
Nautical Twilight 5:57 AM EDT 8:37 PM EDT
Astronomical Twilight 5:27 AM EDT 9:07 PM EDT
Moon 2:14 PM EDT 12:03 AM EDT
Length of Visible Light 13h 39m
Length of Day
12h 49m
Tomorrow will be 1m 59s shorter.
First Quarter, 56% of the Moon is Illuminated
Today
First Quarter
Sep 8
Full
Sep 15
Last Quarter
Sep 24
New
Oct 1
First Quarter

Today's Extremes

State Highs State Lows

Community

WunderPhotos

Upload Photos

1,749,799 photos uploaded!

Nearby

Snow Depth

Station Depth Elevation
No new snow has been reported.

Earthquake Activity

City Distance Mag. Time & Date
No recent earthquake activity has been reported nearby.
Minimum magnitude displayed is 2.5.

Coastal Water Temperatures

Place Temperature
Springmaid Pier, SC 84.9 °F

Nearby Weather Stations